Time;durP1;ratioP1;P1;durP2;ratioP2;P2;SDS_P1;SDS_P2;PMS_P1;PMS_P2;Temp;Humidity;BMP_temperature;BMP_pressure;BME280_temperature;BME280_humidity;BME280_pressure;Samples;Min_cycle;Max_cycle;Signal;HPM_P1;HPM_P2
2022/03/13 00:00:54;;;;;;;6.57;4.37;;;4.00;54.70;;;;;;5097298;28;20215;-54
2022/03/13 00:03:23;;;;;;;6.77;4.53;;;4.00;54.90;;;;;;5068304;27;20242;-55
2022/03/13 00:05:52;;;;;;;6.80;5.00;;;3.90;55.00;;;;;;5099535;28;20219;-50
2022/03/13 00:08:27;;;;;;;5.53;4.47;;;3.90;55.20;;;;;;5084200;28;20208;-54
2022/03/13 00:10:57;;;;;;;5.97;4.87;;;3.90;55.30;;;;;;5104933;28;20283;-53
2022/03/13 00:13:31;;;;;;;5.83;5.20;;;3.90;55.40;;;;;;5100266;28;20256;-53
2022/03/13 00:15:59;;;;;;;7.97;5.47;;;3.80;55.30;;;;;;5099128;28;20272;-54
2022/03/13 00:18:26;;;;;;;6.83;4.80;;;3.80;55.30;;;;;;5100579;28;20196;-59
2022/03/13 00:20:54;;;;;;;7.10;5.07;;;3.80;55.30;;;;;;5099484;28;20205;-54
2022/03/13 00:23:20;;;;;;;4.77;4.13;;;3.80;55.40;;;;;;5086475;28;20689;-54
2022/03/13 00:25:47;;;;;;;5.87;4.43;;;3.80;55.70;;;;;;5103526;28;20204;-49
2022/03/13 00:28:15;;;;;;;6.73;5.17;;;3.70;55.70;;;;;;5102874;28;20201;-51
2022/03/13 00:30:42;;;;;;;7.23;5.50;;;3.70;55.80;;;;;;5098594;28;20202;-46
2022/03/13 00:33:09;;;;;;;5.60;4.93;;;3.70;55.90;;;;;;5103911;28;20229;-55
2022/03/13 00:35:38;;;;;;;8.47;6.40;;;3.70;56.00;;;;;;5093491;28;22797;-53
2022/03/13 00:38:04;;;;;;;8.30;4.47;;;3.70;56.00;;;;;;5104337;28;20659;-58
2022/03/13 00:40:31;;;;;;;6.97;5.23;;;3.70;56.00;;;;;;5087151;28;20992;-55
2022/03/13 00:43:02;;;;;;;5.90;4.30;;;3.60;56.10;;;;;;5105319;28;20220;-53
2022/03/13 00:45:30;;;;;;;6.73;4.77;;;3.60;56.00;;;;;;5100870;28;20196;-51
2022/03/13 00:47:57;;;;;;;7.70;5.47;;;3.60;56.00;;;;;;5098412;28;20195;-46
2022/03/13 00:50:24;;;;;;;7.33;5.07;;;3.60;56.10;;;;;;5095387;28;20200;-50
2022/03/13 00:52:52;;;;;;;6.60;4.67;;;3.60;56.20;;;;;;5102589;28;20300;-48
2022/03/13 00:55:20;;;;;;;6.87;5.33;;;3.50;56.20;;;;;;5089517;28;20254;-53
2022/03/13 00:57:47;;;;;;;7.43;4.97;;;3.50;56.50;;;;;;5100014;28;20719;-49
2022/03/13 01:00:14;;;;;;;5.83;4.50;;;3.50;56.60;;;;;;5103106;28;20242;-53
2022/03/13 01:02:43;;;;;;;5.83;4.33;;;3.40;56.50;;;;;;5097876;28;20233;-55
2022/03/13 01:05:11;;;;;;;4.60;4.00;;;3.40;56.70;;;;;;5103277;28;20626;-53
2022/03/13 01:07:39;;;;;;;6.03;5.03;;;3.40;56.70;;;;;;5096288;28;20203;-49
2022/03/13 01:10:07;;;;;;;5.23;4.73;;;3.30;56.90;;;;;;5104047;28;20208;-57
2022/03/13 01:12:34;;;;;;;6.27;4.53;;;3.30;57.00;;;;;;5086459;28;20238;-58
2022/03/13 01:15:01;;;;;;;6.40;4.70;;;3.30;57.00;;;;;;5104345;28;20220;-53
2022/03/13 01:17:28;;;;;;;5.10;4.50;;;3.30;57.00;;;;;;5099472;28;20208;-58
2022/03/13 01:19:56;;;;;;;5.60;4.83;;;3.20;57.20;;;;;;5098903;28;20204;-50
2022/03/13 01:22:23;;;;;;;6.13;4.40;;;3.20;57.80;;;;;;5094333;28;20213;-56
2022/03/13 01:24:51;;;;;;;7.37;4.90;;;3.20;57.20;;;;;;5104281;28;20208;-53
2022/03/13 01:27:18;;;;;;;9.27;5.80;;;3.20;57.30;;;;;;5090150;28;20204;-53
2022/03/13 01:29:46;;;;;;;6.57;5.03;;;3.10;57.20;;;;;;5101499;28;20204;-57
2022/03/13 01:32:17;;;;;;;5.40;4.23;;;3.10;57.40;;;;;;5101366;28;20225;-53
2022/03/13 01:34:48;;;;;;;6.20;5.10;;;3.10;57.50;;;;;;5097202;28;20224;-56
2022/03/13 01:37:28;;;;;;;6.80;4.53;;;3.10;57.40;;;;;;5098409;28;20672;-57
2022/03/13 01:39:55;;;;;;;6.87;4.70;;;3.10;57.40;;;;;;5098415;28;20204;-58
2022/03/13 01:42:22;;;;;;;6.77;5.20;;;3.00;57.50;;;;;;5086823;28;20215;-56
2022/03/13 01:44:49;;;;;;;6.67;4.87;;;3.00;57.40;;;;;;5097376;28;20196;-57
2022/03/13 01:47:17;;;;;;;7.20;5.10;;;3.00;57.70;;;;;;5096932;28;20288;-57
2022/03/13 01:49:44;;;;;;;10.43;4.77;;;3.00;57.70;;;;;;5103156;28;20212;-57
2022/03/13 01:52:12;;;;;;;7.20;5.00;;;2.90;57.60;;;;;;5095369;28;20214;-58
2022/03/13 01:54:41;;;;;;;6.57;5.07;;;2.90;57.80;;;;;;5097729;28;20299;-52
2022/03/13 01:57:08;;;;;;;7.93;5.33;;;2.90;57.80;;;;;;5102050;28;20199;-58
2022/03/13 01:59:36;;;;;;;9.90;5.10;;;2.80;58.00;;;;;;5085121;28;20200;-58
2022/03/13 02:02:03;;;;;;;6.27;4.77;;;2.70;58.30;;;;;;5103172;28;20208;-56
2022/03/13 02:04:32;;;;;;;9.47;5.07;;;2.70;58.40;;;;;;5099406;28;20206;-48
2022/03/13 02:06:59;;;;;;;5.37;4.70;;;2.70;58.50;;;;;;5097629;28;20248;-52
2022/03/13 02:09:27;;;;;;;7.83;5.23;;;2.60;58.30;;;;;;5093175;28;20202;-51
2022/03/13 02:11:55;;;;;;;7.37;4.47;;;2.60;58.30;;;;;;5103320;28;20203;-52
2022/03/13 02:14:24;;;;;;;5.73;5.13;;;2.70;58.30;;;;;;5084917;28;20212;-53
2022/03/13 02:16:51;;;;;;;9.00;4.63;;;2.60;58.50;;;;;;5102520;28;20198;-50
2022/03/13 02:19:18;;;;;;;7.57;4.70;;;2.60;58.70;;;;;;5100382;28;20211;-55
2022/03/13 02:21:53;;;;;;;5.70;4.93;;;2.50;58.80;;;;;;5097673;28;20654;-48
2022/03/13 02:24:24;;;;;;;8.27;5.17;;;2.50;58.80;;;;;;5094277;28;20276;-57
2022/03/13 02:27:00;;;;;;;6.93;4.77;;;2.50;58.80;;;;;;5102531;28;20209;-56
2022/03/13 02:29:28;;;;;;;6.40;4.53;;;2.50;58.70;;;;;;5084953;28;20293;-58
2022/03/13 02:31:56;;;;;;;9.43;5.37;;;2.40;58.90;;;;;;5102733;28;20192;-58
2022/03/13 02:34:23;;;;;;;8.40;5.70;;;2.40;58.90;;;;;;5099016;28;20209;-57
2022/03/13 02:37:00;;;;;;;6.53;4.67;;;2.40;59.00;;;;;;5102624;28;20218;-57
2022/03/13 02:39:28;;;;;;;7.57;5.00;;;2.40;58.90;;;;;;5086911;28;20198;-58
2022/03/13 02:41:56;;;;;;;7.87;5.23;;;2.40;59.20;;;;;;5103070;28;20196;-51
2022/03/13 02:44:23;;;;;;;6.70;4.87;;;2.30;59.20;;;;;;5085193;28;21646;-57
2022/03/13 02:46:59;;;;;;;6.67;5.10;;;2.30;59.20;;;;;;5100483;28;20187;-54
2022/03/13 02:49:27;;;;;;;6.20;4.90;;;2.30;59.30;;;;;;5099078;28;20200;-59
2022/03/13 02:51:57;;;;;;;8.17;5.03;;;2.30;59.40;;;;;;5103299;28;20213;-58
2022/03/13 02:54:24;;;;;;;7.93;5.43;;;2.20;59.70;;;;;;5092382;28;20204;-51
2022/03/13 02:56:53;;;;;;;7.97;5.20;;;2.20;59.50;;;;;;5090606;28;20222;-52
2022/03/13 02:59:20;;;;;;;6.37;5.20;;;2.20;59.60;;;;;;5097011;28;20202;-53
2022/03/13 03:01:47;;;;;;;6.30;5.20;;;2.20;59.90;;;;;;5085786;28;20202;-51
2022/03/13 03:04:15;;;;;;;5.90;4.87;;;2.10;59.90;;;;;;5096693;28;20226;-52
2022/03/13 03:06:52;;;;;;;8.47;5.67;;;2.10;59.80;;;;;;5094643;28;20195;-52
2022/03/13 03:09:19;;;;;;;8.33;5.13;;;2.10;60.00;;;;;;5094391;28;20204;-52
2022/03/13 03:11:46;;;;;;;9.80;5.50;;;2.10;60.20;;;;;;5096559;28;20225;-52
2022/03/13 03:14:15;;;;;;;6.63;5.17;;;2.00;60.50;;;;;;5101443;28;20223;-56
2022/03/13 03:16:42;;;;;;;6.90;5.03;;;2.00;60.60;;;;;;5083050;28;20973;-56
2022/03/13 03:19:09;;;;;;;7.43;5.40;;;2.00;60.90;;;;;;5101448;28;20214;-57
2022/03/13 03:21:38;;;;;;;6.03;4.70;;;1.90;61.00;;;;;;5101509;28;20260;-55
2022/03/13 03:24:11;;;;;;;8.53;5.43;;;1.90;61.20;;;;;;5100493;28;20221;-53
2022/03/13 03:26:38;;;;;;;8.57;5.20;;;1.90;61.30;;;;;;5098178;28;20201;-50
2022/03/13 03:29:05;;;;;;;6.33;4.90;;;1.90;61.60;;;;;;5106168;28;20192;-55
2022/03/13 03:31:40;;;;;;;7.87;5.80;;;1.80;61.60;;;;;;5089361;28;20292;-57
2022/03/13 03:34:10;;;;;;;6.67;5.37;;;1.80;61.60;;;;;;5105778;28;20306;-56
2022/03/13 03:36:43;;;;;;;9.13;5.70;;;1.80;61.70;;;;;;5103507;28;20214;-55
2022/03/13 03:39:12;;;;;;;7.43;4.90;;;1.80;61.80;;;;;;5101873;28;20196;-56
2022/03/13 03:41:39;;;;;;;7.87;5.23;;;1.70;62.00;;;;;;5095114;28;20212;-57
2022/03/13 03:44:07;;;;;;;11.70;5.80;;;1.70;62.00;;;;;;5106029;28;20221;-56
2022/03/13 03:46:35;;;;;;;8.40;6.13;;;1.70;62.10;;;;;;5087767;28;20878;-56
2022/03/13 03:49:03;;;;;;;7.77;5.70;;;1.70;62.40;;;;;;5106109;28;20687;-56
2022/03/13 03:51:29;;;;;;;10.43;5.60;;;1.70;62.40;;;;;;5102349;28;20202;-56
2022/03/13 03:53:57;;;;;;;9.57;6.23;;;1.70;62.60;;;;;;5106076;28;20241;-50
2022/03/13 03:56:24;;;;;;;13.43;6.00;;;1.70;62.50;;;;;;5095466;28;20229;-51
2022/03/13 03:58:51;;;;;;;9.30;6.20;;;1.60;62.40;;;;;;5100257;28;20201;-48
2022/03/13 04:01:17;;;;;;;9.90;5.93;;;1.60;62.40;;;;;;5103198;28;20208;-55
2022/03/13 04:03:46;;;;;;;8.90;5.27;;;1.60;62.60;;;;;;5090131;28;20225;-50
2022/03/13 04:06:13;;;;;;;8.37;5.53;;;1.60;62.80;;;;;;5103292;28;20197;-50
2022/03/13 04:08:40;;;;;;;8.70;6.53;;;1.60;63.00;;;;;;5104186;28;20193;-51
2022/03/13 04:11:08;;;;;;;11.10;6.40;;;1.60;63.10;;;;;;5099699;28;20199;-53
2022/03/13 04:13:38;;;;;;;8.07;5.47;;;1.50;63.20;;;;;;5097501;28;20318;-52
2022/03/13 04:16:06;;;;;;;10.77;6.30;;;1.50;63.40;;;;;;5103981;28;20213;-55
2022/03/13 04:18:34;;;;;;;8.03;5.37;;;1.50;63.40;;;;;;5087767;28;20271;-54
2022/03/13 04:21:04;;;;;;;8.10;6.40;;;1.50;63.50;;;;;;5106098;28;20188;-55
2022/03/13 04:23:34;;;;;;;10.20;6.13;;;1.40;63.70;;;;;;5102499;28;20221;-50
2022/03/13 04:26:01;;;;;;;10.63;6.67;;;1.40;63.90;;;;;;5099296;28;20199;-53
2022/03/13 04:28:28;;;;;;;9.33;5.70;;;1.40;64.00;;;;;;5101318;28;20225;-52
2022/03/13 04:30:57;;;;;;;14.10;6.40;;;1.40;64.10;;;;;;5099446;28;20257;-43
2022/03/13 04:33:25;;;;;;;10.40;6.10;;;1.40;64.20;;;;;;5085834;28;20300;-52
2022/03/13 04:35:56;;;;;;;6.13;5.47;;;1.40;64.20;;;;;;5104633;28;20324;-46
2022/03/13 04:38:24;;;;;;;10.30;6.33;;;1.40;64.20;;;;;;5101118;28;20963;-56
2022/03/13 04:40:54;;;;;;;7.63;5.83;;;1.40;64.40;;;;;;5098812;28;20205;-49
2022/03/13 04:43:21;;;;;;;8.97;5.90;;;1.30;64.30;;;;;;5094293;28;20325;-52
2022/03/13 04:45:51;;;;;;;10.63;6.20;;;1.30;64.40;;;;;;5091326;28;20246;-54
2022/03/13 04:48:18;;;;;;;9.00;5.50;;;1.30;64.30;;;;;;5090746;28;20287;-53
2022/03/13 04:50:45;;;;;;;13.30;6.73;;;1.30;64.50;;;;;;5101113;28;20197;-53
2022/03/13 04:53:12;;;;;;;7.90;6.07;;;1.30;64.50;;;;;;5103159;28;20228;-54
2022/03/13 04:55:40;;;;;;;8.33;5.53;;;1.30;64.40;;;;;;5102526;28;20202;-53
2022/03/13 04:58:08;;;;;;;9.13;5.67;;;1.30;64.50;;;;;;5095992;28;20204;-55
2022/03/13 05:00:37;;;;;;;7.70;5.43;;;1.30;64.70;;;;;;5095896;28;20202;-51
2022/03/13 05:03:04;;;;;;;9.10;6.17;;;1.20;65.50;;;;;;5104087;28;20225;-53
2022/03/13 05:05:31;;;;;;;10.70;6.23;;;1.20;64.70;;;;;;5087891;28;20202;-48
2022/03/13 05:07:58;;;;;;;8.43;5.60;;;1.20;64.90;;;;;;5104015;28;20197;-50
2022/03/13 05:10:29;;;;;;;9.43;5.73;;;1.20;64.80;;;;;;5100570;28;20194;-55
2022/03/13 05:12:57;;;;;;;9.53;6.23;;;1.20;64.90;;;;;;5098287;28;20298;-49
2022/03/13 05:15:23;;;;;;;10.43;6.00;;;1.10;65.00;;;;;;5099926;28;20216;-52
2022/03/13 05:17:52;;;;;;;10.37;5.93;;;1.10;65.00;;;;;;5097450;28;20318;-51
2022/03/13 05:20:20;;;;;;;9.03;5.73;;;1.10;65.00;;;;;;5086370;28;20266;-55
2022/03/13 05:22:47;;;;;;;9.47;6.40;;;1.10;65.20;;;;;;5103606;28;20237;-51
2022/03/13 05:25:15;;;;;;;9.00;6.33;;;1.10;65.50;;;;;;5102512;28;20190;-54
2022/03/13 05:27:43;;;;;;;10.17;6.57;;;1.00;65.60;;;;;;5097329;28;20556;-50
2022/03/13 05:30:12;;;;;;;7.40;5.63;;;1.00;65.80;;;;;;5103021;28;20706;-54
2022/03/13 05:32:39;;;;;;;12.43;6.13;;;1.00;65.90;;;;;;5096244;28;20939;-50
2022/03/13 05:35:06;;;;;;;7.57;5.10;;;1.00;66.00;;;;;;5089180;28;20210;-54
2022/03/13 05:37:33;;;;;;;10.23;6.17;;;0.90;65.90;;;;;;5100252;28;20450;-56
2022/03/13 05:40:00;;;;;;;8.87;6.13;;;0.90;66.10;;;;;;5104374;28;20711;-58
2022/03/13 05:42:27;;;;;;;7.67;5.83;;;0.90;66.10;;;;;;5094301;28;20218;-55
2022/03/13 05:44:54;;;;;;;11.43;5.87;;;0.90;65.90;;;;;;5102896;28;20201;-54
2022/03/13 05:47:22;;;;;;;8.70;6.33;;;0.90;66.30;;;;;;5093913;28;20205;-47
2022/03/13 05:49:51;;;;;;;9.50;5.87;;;0.90;66.10;;;;;;5098796;28;20666;-48
2022/03/13 05:52:18;;;;;;;8.63;5.93;;;0.90;66.20;;;;;;5085171;28;20222;-55
2022/03/13 05:54:45;;;;;;;7.87;6.07;;;0.90;66.10;;;;;;5102992;28;20611;-50
2022/03/13 05:57:13;;;;;;;9.97;5.80;;;0.90;66.20;;;;;;5100478;28;20227;-55
2022/03/13 05:59:40;;;;;;;11.30;6.20;;;0.90;66.40;;;;;;5096391;28;20210;-48
2022/03/13 06:02:08;;;;;;;10.17;6.03;;;0.90;66.20;;;;;;5102923;28;20193;-51
2022/03/13 06:04:36;;;;;;;10.60;5.60;;;0.90;66.50;;;;;;5092193;28;20917;-46
2022/03/13 06:07:04;;;;;;;8.40;5.90;;;0.90;66.30;;;;;;5085451;28;20216;-47
2022/03/13 06:09:32;;;;;;;7.93;5.63;;;0.90;66.30;;;;;;5092204;28;20836;-54
2022/03/13 06:11:59;;;;;;;9.33;5.63;;;0.90;66.30;;;;;;5101596;28;20662;-47
2022/03/13 06:14:26;;;;;;;7.13;5.17;;;0.90;66.20;;;;;;5091885;28;20208;-49
2022/03/13 06:16:54;;;;;;;6.63;5.40;;;1.00;66.10;;;;;;5100161;28;20219;-52
2022/03/13 06:19:21;;;;;;;6.57;5.63;;;1.00;66.30;;;;;;5091778;28;20210;-57
2022/03/13 06:21:49;;;;;;;8.77;5.33;;;1.00;66.40;;;;;;5086351;28;20231;-53
2022/03/13 06:24:17;;;;;;;8.83;5.70;;;1.10;66.00;;;;;;5094648;28;20217;-50
2022/03/13 06:26:45;;;;;;;13.27;6.20;;;1.10;65.60;;;;;;5098976;28;20204;-47
2022/03/13 06:29:14;;;;;;;9.93;5.47;;;1.20;65.50;;;;;;5097909;28;20197;-46
2022/03/13 06:31:41;;;;;;;9.17;5.70;;;1.20;65.30;;;;;;5097239;28;20918;-47
2022/03/13 06:34:08;;;;;;;7.20;5.70;;;1.30;65.30;;;;;;5099780;28;20213;-54
2022/03/13 06:36:35;;;;;;;9.17;5.80;;;1.40;65.30;;;;;;5078441;28;20372;-48
2022/03/13 06:39:03;;;;;;;6.97;5.37;;;1.40;65.10;;;;;;5101170;28;20721;-55
2022/03/13 06:41:31;;;;;;;6.47;4.87;;;1.40;64.80;;;;;;5090662;28;20194;-58
2022/03/13 06:43:57;;;;;;;8.73;5.53;;;1.50;64.70;;;;;;5101037;28;20217;-56
2022/03/13 06:46:24;;;;;;;9.23;5.33;;;1.50;64.60;;;;;;5090884;28;20294;-52
2022/03/13 06:48:50;;;;;;;6.33;5.20;;;1.60;65.20;;;;;;5100911;28;20205;-57
2022/03/13 06:51:17;;;;;;;8.90;5.30;;;1.70;64.40;;;;;;5092548;28;20197;-51
2022/03/13 06:53:44;;;;;;;7.50;5.63;;;1.70;64.10;;;;;;5084648;28;20315;-51
2022/03/13 06:56:12;;;;;;;6.80;5.33;;;1.80;63.90;;;;;;5099195;28;20214;-55
2022/03/13 06:58:41;;;;;;;7.23;5.13;;;1.80;63.70;;;;;;5100123;28;20201;-53
2022/03/13 07:01:08;;;;;;;7.37;4.90;;;1.90;63.30;;;;;;5098084;28;20219;-53
2022/03/13 07:03:34;;;;;;;11.20;5.63;;;2.00;63.00;;;;;;5101757;28;20220;-48
2022/03/13 07:06:02;;;;;;;8.50;5.67;;;2.10;62.70;;;;;;5104152;28;20202;-48
2022/03/13 07:08:29;;;;;;;8.93;5.67;;;2.20;62.20;;;;;;5080674;28;23722;-45
2022/03/13 07:10:56;;;;;;;13.33;5.43;;;2.30;61.80;;;;;;5102743;28;20204;-47
2022/03/13 07:13:24;;;;;;;7.87;5.77;;;2.40;61.50;;;;;;5095063;28;20700;-49
2022/03/13 07:15:53;;;;;;;7.53;5.40;;;2.50;61.10;;;;;;5104227;28;20712;-47
2022/03/13 07:18:20;;;;;;;7.53;5.60;;;2.60;61.00;;;;;;5097289;28;20224;-50
2022/03/13 07:20:47;;;;;;;7.53;5.17;;;2.60;60.40;;;;;;5106005;28;20195;-47
2022/03/13 07:23:14;;;;;;;7.80;5.30;;;2.70;60.50;;;;;;5090404;28;20226;-48
2022/03/13 07:25:41;;;;;;;8.43;4.93;;;2.80;59.90;;;;;;5099246;28;20200;-48
2022/03/13 07:28:07;;;;;;;9.27;5.10;;;2.90;59.80;;;;;;5105637;28;20203;-50
2022/03/13 07:30:35;;;;;;;7.50;5.10;;;3.00;59.20;;;;;;5103459;28;20201;-47
2022/03/13 07:33:02;;;;;;;7.43;5.40;;;3.10;59.20;;;;;;5099931;28;20229;-42
2022/03/13 07:35:29;;;;;;;8.80;5.43;;;3.20;59.30;;;;;;5102317;28;20203;-42
2022/03/13 07:37:55;;;;;;;5.80;5.20;;;3.20;58.70;;;;;;5100197;28;20276;-42
2022/03/13 07:40:22;;;;;;;10.10;5.73;;;3.30;58.40;;;;;;5087933;28;20220;-45
2022/03/13 07:42:48;;;;;;;9.10;4.80;;;3.40;58.20;;;;;;5106041;28;20223;-41
2022/03/13 07:45:15;;;;;;;11.93;5.80;;;3.50;58.00;;;;;;5104157;28;20202;-43
2022/03/13 07:47:44;;;;;;;8.13;4.67;;;3.60;57.60;;;;;;5098970;28;20180;-42
2022/03/13 07:50:11;;;;;;;7.57;4.63;;;3.70;57.20;;;;;;5104863;28;20280;-42
2022/03/13 07:52:39;;;;;;;5.27;4.17;;;3.70;57.10;;;;;;5103617;28;20970;-43
2022/03/13 07:55:07;;;;;;;7.20;5.13;;;3.80;56.70;;;;;;5085382;28;20219;-44
2022/03/13 07:57:33;;;;;;;5.50;5.00;;;3.90;56.20;;;;;;5101922;28;20217;-42
2022/03/13 08:00:00;;;;;;;6.93;5.40;;;4.00;56.20;;;;;;5106172;27;20231;-42
2022/03/13 08:02:28;;;;;;;7.63;5.07;;;4.10;55.60;;;;;;5096482;28;20212;-47
2022/03/13 08:04:56;;;;;;;9.00;5.00;;;4.20;55.70;;;;;;5105788;28;20279;-45
2022/03/13 08:07:23;;;;;;;6.07;5.07;;;4.20;55.80;;;;;;5100557;28;20200;-43
2022/03/13 08:09:50;;;;;;;7.83;5.10;;;4.30;55.20;;;;;;5087159;28;20211;-43
2022/03/13 08:12:17;;;;;;;8.67;5.37;;;4.40;55.00;;;;;;5101584;28;20255;-43
2022/03/13 08:14:45;;;;;;;12.93;8.20;;;4.50;54.60;;;;;;5100691;28;20203;-42
2022/03/13 08:17:12;;;;;;;10.47;4.70;;;4.60;55.10;;;;;;5095136;28;20216;-60
2022/03/13 08:19:39;;;;;;;9.30;5.50;;;4.60;54.80;;;;;;5099733;28;20196;-57
2022/03/13 08:22:07;;;;;;;7.03;5.50;;;4.70;55.10;;;;;;5104589;28;20532;-58
2022/03/13 08:24:34;;;;;;;7.90;4.93;;;4.90;54.60;;;;;;5101254;28;20230;-58
2022/03/13 08:27:01;;;;;;;9.07;5.10;;;5.00;54.00;;;;;;5080242;28;20326;-43
2022/03/13 08:29:27;;;;;;;8.70;5.30;;;5.00;54.10;;;;;;5100522;28;20192;-43
2022/03/13 08:31:54;;;;;;;8.23;5.80;;;5.10;54.00;;;;;;5105427;28;20208;-41
2022/03/13 08:34:22;;;;;;;7.63;5.27;;;5.20;53.90;;;;;;5095001;28;20231;-42
2022/03/13 08:36:51;;;;;;;6.17;5.37;;;5.30;53.70;;;;;;5105240;28;20568;-42
2022/03/13 08:39:19;;;;;;;6.37;5.27;;;5.40;53.20;;;;;;5102510;28;20639;-42
2022/03/13 08:41:46;;;;;;;7.30;5.37;;;5.40;52.90;;;;;;5089993;28;20296;-42
2022/03/13 08:44:13;;;;;;;7.50;4.93;;;5.50;53.20;;;;;;5102315;28;20225;-42
2022/03/13 08:46:40;;;;;;;8.50;5.17;;;5.50;52.50;;;;;;5102343;28;20933;-43
2022/03/13 08:49:09;;;;;;;5.30;4.80;;;5.60;52.50;;;;;;5094327;28;20648;-42
2022/03/13 08:51:37;;;;;;;7.57;5.30;;;5.60;52.00;;;;;;5102609;28;20196;-41
2022/03/13 08:54:03;;;;;;;9.27;5.27;;;5.70;52.50;;;;;;5102790;28;20217;-43
2022/03/13 08:56:32;;;;;;;6.80;5.17;;;5.80;52.30;;;;;;5099988;28;20993;-40
2022/03/13 08:58:59;;;;;;;5.93;5.43;;;5.90;52.00;;;;;;5089668;28;20666;-41
2022/03/13 09:01:25;;;;;;;6.10;4.50;;;6.00;52.30;;;;;;5100254;28;20202;-42
2022/03/13 09:03:54;;;;;;;7.77;5.20;;;6.10;51.80;;;;;;5103729;28;20296;-40
2022/03/13 09:06:21;;;;;;;7.10;5.30;;;6.10;51.30;;;;;;5088320;28;20209;-41
2022/03/13 09:08:48;;;;;;;6.67;5.10;;;6.20;51.30;;;;;;5102927;28;20280;-41
2022/03/13 09:11:15;;;;;;;8.30;5.30;;;6.30;50.50;;;;;;5097087;28;20662;-42
2022/03/13 09:13:45;;;;;;;4.50;4.10;;;6.40;51.10;;;;;;5085641;28;20279;-41
2022/03/13 09:16:12;;;;;;;7.57;4.73;;;6.50;50.10;;;;;;5101075;28;20197;-44
2022/03/13 09:18:39;;;;;;;8.03;5.63;;;6.50;50.20;;;;;;5101604;28;20221;-43
2022/03/13 09:21:06;;;;;;;6.87;5.20;;;6.60;50.60;;;;;;5097405;28;20610;-43
2022/03/13 09:23:33;;;;;;;7.43;4.77;;;6.70;49.80;;;;;;5101343;28;20209;-41
2022/03/13 09:26:00;;;;;;;6.90;5.67;;;6.70;49.60;;;;;;5103766;28;20209;-43
2022/03/13 09:28:29;;;;;;;7.37;4.40;;;6.70;49.80;;;;;;5085412;28;24388;-46
2022/03/13 09:30:59;;;;;;;7.63;5.37;;;6.90;49.70;;;;;;5104101;28;20193;-45
2022/03/13 09:33:27;;;;;;;8.80;5.40;;;6.90;49.60;;;;;;5096503;28;20909;-42
2022/03/13 09:35:54;;;;;;;8.70;4.93;;;6.90;50.20;;;;;;5096068;28;20787;-43
2022/03/13 09:38:20;;;;;;;8.43;6.30;;;7.00;49.40;;;;;;5099659;28;20647;-44
2022/03/13 09:40:47;;;;;;;5.50;4.90;;;7.10;49.50;;;;;;5103823;28;20253;-43
2022/03/13 09:43:14;;;;;;;6.97;5.33;;;7.20;49.50;;;;;;5092656;28;20217;-42
2022/03/13 09:45:41;;;;;;;8.60;5.43;;;7.20;49.30;;;;;;5096473;28;20186;-43
2022/03/13 09:48:09;;;;;;;5.10;4.60;;;7.30;49.30;;;;;;5101752;28;20260;-44
2022/03/13 09:50:36;;;;;;;6.10;4.40;;;7.40;49.00;;;;;;5100528;28;20193;-43
2022/03/13 09:53:03;;;;;;;7.27;5.13;;;7.50;49.20;;;;;;5097228;28;20697;-42
2022/03/13 09:55:30;;;;;;;5.83;4.30;;;7.60;48.20;;;;;;5100219;28;20276;-42
2022/03/13 09:57:57;;;;;;;7.77;5.23;;;7.60;48.00;;;;;;5098243;28;20232;-42
2022/03/13 10:00:24;;;;;;;6.20;4.33;;;7.60;48.10;;;;;;5085282;28;20220;-41
2022/03/13 10:02:53;;;;;;;7.47;5.13;;;7.70;48.10;;;;;;5103893;28;20712;-41
2022/03/13 10:05:22;;;;;;;7.17;5.33;;;7.80;47.40;;;;;;5099709;28;20196;-43
2022/03/13 10:07:55;;;;;;;8.00;5.23;;;7.90;47.70;;;;;;5097662;28;20189;-43
2022/03/13 10:10:22;;;;;;;5.90;4.93;;;8.00;47.80;;;;;;5100244;28;20677;-44
2022/03/13 10:12:49;;;;;;;5.73;5.13;;;8.00;47.00;;;;;;5103442;28;20217;-42
2022/03/13 10:15:16;;;;;;;10.23;6.63;;;8.00;47.40;;;;;;5086974;28;20618;-42
2022/03/13 10:17:44;;;;;;;6.67;5.30;;;8.20;47.90;;;;;;5096841;28;20247;-43
2022/03/13 10:20:19;;;;;;;6.20;4.87;;;8.20;48.20;;;;;;5101576;28;20204;-46
2022/03/13 10:22:49;;;;;;;12.50;6.00;;;8.50;48.10;;;;;;5097711;28;20308;-45
2022/03/13 10:25:29;;;;;;;7.20;5.20;;;8.50;47.00;;;;;;5101014;28;20214;-42
2022/03/13 10:28:00;;;;;;;6.23;4.67;;;8.50;47.30;;;;;;5084668;28;20189;-43
2022/03/13 10:30:27;;;;;;;6.03;5.20;;;8.50;47.00;;;;;;5085324;28;20231;-44
2022/03/13 10:32:56;;;;;;;9.03;4.60;;;8.50;46.60;;;;;;5084568;28;20220;-42
2022/03/13 10:35:23;;;;;;;5.10;4.60;;;8.50;46.30;;;;;;5101537;28;20726;-43
2022/03/13 10:37:51;;;;;;;6.67;5.20;;;8.50;46.30;;;;;;5094760;28;20217;-44
2022/03/13 10:40:22;;;;;;;9.07;5.47;;;8.50;46.70;;;;;;5103084;28;20205;-47
2022/03/13 10:42:50;;;;;;;7.67;5.60;;;8.60;46.50;;;;;;5100728;28;20223;-43
2022/03/13 10:45:36;;;;;;;7.20;5.50;;;8.60;46.50;;;;;;5087141;28;20202;-44
2022/03/13 10:48:20;;;;;;;6.93;5.20;;;8.70;46.90;;;;;;5089314;28;20432;-44
2022/03/13 10:50:50;;;;;;;6.43;5.27;;;8.80;46.90;;;;;;5100466;28;20239;-42
2022/03/13 10:53:21;;;;;;;7.17;5.30;;;8.90;46.80;;;;;;5097822;28;20225;-44
2022/03/13 10:56:02;;;;;;;6.40;4.90;;;8.90;46.60;;;;;;5100053;28;20205;-43
2022/03/13 10:58:29;;;;;;;6.67;5.47;;;9.00;46.50;;;;;;5095663;28;20235;-46
2022/03/13 11:01:04;;;;;;;6.33;5.63;;;9.10;46.40;;;;;;5080714;28;20209;-42
2022/03/13 11:03:32;;;;;;;6.50;5.33;;;9.20;46.30;;;;;;5093165;28;20248;-48
2022/03/13 11:06:00;;;;;;;7.10;4.80;;;9.30;46.70;;;;;;5092026;28;20972;-45
2022/03/13 11:08:28;;;;;;;6.70;5.20;;;9.40;46.70;;;;;;5100411;28;20202;-46
2022/03/13 11:10:56;;;;;;;8.70;5.50;;;9.60;46.10;;;;;;5093775;28;20863;-46
2022/03/13 11:13:25;;;;;;;6.80;5.10;;;9.70;46.20;;;;;;5102693;28;20310;-44
2022/03/13 11:15:55;;;;;;;6.60;5.27;;;9.70;46.00;;;;;;5084639;28;20201;-47
2022/03/13 11:18:26;;;;;;;6.20;5.07;;;9.70;46.40;;;;;;5094485;28;20217;-47
2022/03/13 11:20:52;;;;;;;5.90;5.30;;;9.80;46.20;;;;;;5093884;28;20270;-45
2022/03/13 11:23:20;;;;;;;7.63;5.57;;;9.80;45.90;;;;;;5103344;28;20221;-44
2022/03/13 11:25:54;;;;;;;8.30;5.10;;;9.80;45.30;;;;;;5093981;28;20228;-45
2022/03/13 11:28:22;;;;;;;6.63;5.93;;;9.80;45.00;;;;;;5102991;28;20276;-45
2022/03/13 11:30:49;;;;;;;8.53;5.40;;;9.90;45.80;;;;;;5089817;28;20208;-45
2022/03/13 11:33:31;;;;;;;6.23;5.40;;;10.00;46.20;;;;;;5093896;28;20225;-45
2022/03/13 11:36:27;;;;;;;6.97;5.43;;;10.10;45.40;;;;;;5090653;28;20189;-44
2022/03/13 11:38:56;;;;;;;7.70;5.80;;;10.10;45.40;;;;;;5093799;28;20213;-43
2022/03/13 11:41:35;;;;;;;7.00;5.30;;;10.10;45.50;;;;;;5097527;28;20208;-42
2022/03/13 11:44:04;;;;;;;5.63;5.03;;;10.20;45.90;;;;;;5101595;28;20201;-45
2022/03/13 11:46:40;;;;;;;9.40;6.07;;;10.30;45.50;;;;;;5105132;28;20645;-41
2022/03/13 11:49:16;;;;;;;8.23;5.50;;;10.30;44.90;;;;;;5089570;28;20919;-42
2022/03/13 11:51:44;;;;;;;5.80;5.20;;;10.40;44.70;;;;;;5095547;28;20204;-43
2022/03/13 11:54:13;;;;;;;5.97;4.93;;;10.40;44.20;;;;;;5101061;28;20216;-43
2022/03/13 11:56:49;;;;;;;7.23;5.33;;;10.50;44.70;;;;;;5095816;28;20285;-43
2022/03/13 11:59:18;;;;;;;6.10;4.47;;;10.50;44.80;;;;;;5105057;28;20727;-40
2022/03/13 12:01:48;;;;;;;6.07;4.43;;;10.60;43.80;;;;;;5090713;28;20262;-53
2022/03/13 12:04:28;;;;;;;7.87;5.03;;;10.70;44.20;;;;;;5094795;28;20303;-51
2022/03/13 12:07:00;;;;;;;5.17;4.67;;;10.80;44.30;;;;;;5091984;28;20972;-53
2022/03/13 12:09:41;;;;;;;8.97;5.20;;;10.90;44.20;;;;;;5106353;28;20665;-53
2022/03/13 12:12:12;;;;;;;8.27;5.00;;;11.00;46.20;;;;;;5093487;28;20199;-51
2022/03/13 12:14:52;;;;;;;6.33;4.97;;;10.90;46.90;;;;;;5105062;27;20577;-51
2022/03/13 12:17:20;;;;;;;7.17;6.00;;;11.10;48.70;;;;;;5091063;28;20193;-54
2022/03/13 12:19:47;;;;;;;5.90;5.17;;;11.00;44.50;;;;;;5097565;28;20221;-52
2022/03/13 12:22:15;;;;;;;6.83;5.63;;;11.10;44.90;;;;;;5097428;28;20211;-55
2022/03/13 12:24:49;;;;;;;7.17;5.77;;;11.20;44.60;;;;;;5104313;28;20201;-54
2022/03/13 12:27:18;;;;;;;6.57;4.73;;;11.30;44.70;;;;;;5099300;28;20261;-54
2022/03/13 12:29:50;;;;;;;8.33;5.87;;;11.30;44.30;;;;;;5103091;28;20666;-56
2022/03/13 12:32:17;;;;;;;7.83;5.30;;;11.40;44.10;;;;;;5104729;28;20229;-54
2022/03/13 12:34:44;;;;;;;5.53;4.93;;;11.40;43.90;;;;;;5080824;28;20208;-56
2022/03/13 12:37:11;;;;;;;9.77;5.10;;;11.40;44.20;;;;;;5096260;28;20206;-42
2022/03/13 12:39:49;;;;;;;5.27;4.77;;;11.40;44.30;;;;;;5104687;28;20224;-44
2022/03/13 12:42:24;;;;;;;5.20;4.67;;;11.50;43.30;;;;;;5099760;28;20643;-43
2022/03/13 12:45:03;;;;;;;5.73;5.13;;;11.60;44.30;;;;;;5099292;28;20204;-44
2022/03/13 12:47:32;;;;;;;7.80;4.87;;;11.70;45.00;;;;;;5103460;28;20215;-44
2022/03/13 12:49:59;;;;;;;5.07;4.20;;;11.80;43.90;;;;;;5086347;28;20205;-42
2022/03/13 12:52:27;;;;;;;6.80;4.40;;;11.90;42.90;;;;;;5105321;28;20213;-42
2022/03/13 12:54:58;;;;;;;8.03;4.80;;;11.90;42.50;;;;;;5093264;28;21104;-42
2022/03/13 12:57:26;;;;;;;6.60;4.53;;;12.00;42.70;;;;;;5096943;28;20213;-57
2022/03/13 12:59:53;;;;;;;4.40;4.00;;;12.10;42.30;;;;;;5101229;28;20224;-57
2022/03/13 13:02:23;;;;;;;5.97;4.53;;;12.10;42.10;;;;;;5104942;28;20701;-57